Freshwater, Canada
Current Conditions -  °F | °C
As of 9:00 PM on Wednesday 26 Nov 2014 (Local Time) from CYYT Reporting Station
Overcast Overcast  
Wind Chill: 35°   Ceiling: 15000
Heat Index: 39°   Visibility: 15mi
Dew Point: 36°   Wind: 6mph
Humidity: 87%   Direction: 280°W
Pressure: 30.12"   Gusts: NA
Location:  47.75°N, 53.2°W
Report Text: CYYT 270000Z 28005KT 15SM BKN150 OVC200 04/02 A3012 RMK AC7CS1 PRESRR SLP204
Loading
Personal Weather Stations






























Interactive Weather Map New forecast layout! Learn more

10-Day Weather Forecast

Advertisements
Track Severe Weather on mobile